sensor_id;sensor_type;location;lat;lon;timestamp;P1;durP1;ratioP1;P2;durP2;ratioP2
40355;SDS011;26061;50.044;19.930;2023-04-25T00:01:20;7.00;;;3.90;;
40355;SDS011;26061;50.044;19.930;2023-04-25T00:03:47;9.15;;;5.43;;
40355;SDS011;26061;50.044;19.930;2023-04-25T00:06:13;7.72;;;5.63;;
40355;SDS011;26061;50.044;19.930;2023-04-25T00:08:39;8.95;;;5.80;;
40355;SDS011;26061;50.044;19.930;2023-04-25T00:11:04;4.93;;;4.43;;
40355;SDS011;26061;50.044;19.930;2023-04-25T00:13:32;5.68;;;4.40;;
40355;SDS011;26061;50.044;19.930;2023-04-25T00:15:58;4.22;;;3.47;;
40355;SDS011;26061;50.044;19.930;2023-04-25T00:18:25;4.10;;;3.38;;
40355;SDS011;26061;50.044;19.930;2023-04-25T00:20:54;3.83;;;3.35;;
40355;SDS011;26061;50.044;19.930;2023-04-25T00:23:19;4.38;;;3.90;;
40355;SDS011;26061;50.044;19.930;2023-04-25T00:25:45;4.65;;;4.15;;
40355;SDS011;26061;50.044;19.930;2023-04-25T00:28:11;6.63;;;4.15;;
40355;SDS011;26061;50.044;19.930;2023-04-25T00:30:37;5.55;;;4.10;;
40355;SDS011;26061;50.044;19.930;2023-04-25T00:33:03;6.13;;;4.20;;
40355;SDS011;26061;50.044;19.930;2023-04-25T00:35:29;6.63;;;4.85;;
40355;SDS011;26061;50.044;19.930;2023-04-25T00:37:54;5.13;;;4.38;;
40355;SDS011;26061;50.044;19.930;2023-04-25T00:40:20;5.00;;;4.13;;
40355;SDS011;26061;50.044;19.930;2023-04-25T00:42:45;4.75;;;3.72;;
40355;SDS011;26061;50.044;19.930;2023-04-25T00:45:12;5.47;;;4.55;;
40355;SDS011;26061;50.044;19.930;2023-04-25T00:47:39;11.13;;;6.30;;
40355;SDS011;26061;50.044;19.930;2023-04-25T00:50:05;6.40;;;5.40;;
40355;SDS011;26061;50.044;19.930;2023-04-25T00:52:31;6.53;;;4.70;;
40355;SDS011;26061;50.044;19.930;2023-04-25T00:54:57;4.63;;;3.67;;
40355;SDS011;26061;50.044;19.930;2023-04-25T00:57:22;5.55;;;4.07;;
40355;SDS011;26061;50.044;19.930;2023-04-25T00:59:48;5.20;;;4.40;;
40355;SDS011;26061;50.044;19.930;2023-04-25T01:02:16;6.25;;;4.63;;
40355;SDS011;26061;50.044;19.930;2023-04-25T01:04:41;5.70;;;3.78;;
40355;SDS011;26061;50.044;19.930;2023-04-25T01:07:07;4.13;;;3.72;;
40355;SDS011;26061;50.044;19.930;2023-04-25T01:09:34;6.10;;;5.00;;
40355;SDS011;26061;50.044;19.930;2023-04-25T01:11:59;7.35;;;4.05;;
40355;SDS011;26061;50.044;19.930;2023-04-25T01:14:26;5.05;;;4.05;;
40355;SDS011;26061;50.044;19.930;2023-04-25T01:16:51;6.50;;;4.28;;
40355;SDS011;26061;50.044;19.930;2023-04-25T01:19:18;5.60;;;3.97;;
40355;SDS011;26061;50.044;19.930;2023-04-25T01:21:44;4.88;;;4.22;;
40355;SDS011;26061;50.044;19.930;2023-04-25T01:24:10;4.70;;;4.03;;
40355;SDS011;26061;50.044;19.930;2023-04-25T01:26:36;6.22;;;4.45;;
40355;SDS011;26061;50.044;19.930;2023-04-25T01:29:01;6.07;;;4.63;;
40355;SDS011;26061;50.044;19.930;2023-04-25T01:31:29;6.50;;;4.40;;
40355;SDS011;26061;50.044;19.930;2023-04-25T01:33:55;6.43;;;4.80;;
40355;SDS011;26061;50.044;19.930;2023-04-25T01:36:21;5.43;;;4.47;;
40355;SDS011;26061;50.044;19.930;2023-04-25T01:38:46;6.80;;;4.45;;
40355;SDS011;26061;50.044;19.930;2023-04-25T01:41:13;4.93;;;4.28;;
40355;SDS011;26061;50.044;19.930;2023-04-25T01:43:39;7.18;;;3.95;;
40355;SDS011;26061;50.044;19.930;2023-04-25T01:46:04;4.75;;;4.28;;
40355;SDS011;26061;50.044;19.930;2023-04-25T01:48:30;5.18;;;4.68;;
40355;SDS011;26061;50.044;19.930;2023-04-25T01:50:56;7.40;;;5.20;;
40355;SDS011;26061;50.044;19.930;2023-04-25T01:53:21;7.28;;;5.15;;
40355;SDS011;26061;50.044;19.930;2023-04-25T01:55:48;6.80;;;5.00;;
40355;SDS011;26061;50.044;19.930;2023-04-25T01:58:13;7.75;;;5.70;;
40355;SDS011;26061;50.044;19.930;2023-04-25T02:00:39;6.55;;;5.10;;
40355;SDS011;26061;50.044;19.930;2023-04-25T02:03:06;8.35;;;5.80;;
40355;SDS011;26061;50.044;19.930;2023-04-25T02:05:35;7.72;;;5.40;;
40355;SDS011;26061;50.044;19.930;2023-04-25T02:08:01;7.57;;;5.15;;
40355;SDS011;26061;50.044;19.930;2023-04-25T02:10:27;7.28;;;5.47;;
40355;SDS011;26061;50.044;19.930;2023-04-25T02:12:52;6.93;;;5.17;;
40355;SDS011;26061;50.044;19.930;2023-04-25T02:15:18;5.78;;;4.25;;
40355;SDS011;26061;50.044;19.930;2023-04-25T02:17:43;11.50;;;5.10;;
40355;SDS011;26061;50.044;19.930;2023-04-25T02:20:10;6.83;;;4.73;;
40355;SDS011;26061;50.044;19.930;2023-04-25T02:22:36;6.43;;;4.77;;
40355;SDS011;26061;50.044;19.930;2023-04-25T02:25:02;6.00;;;4.70;;
40355;SDS011;26061;50.044;19.930;2023-04-25T02:27:30;8.50;;;4.70;;
40355;SDS011;26061;50.044;19.930;2023-04-25T02:29:55;6.70;;;4.68;;
40355;SDS011;26061;50.044;19.930;2023-04-25T02:32:21;8.05;;;5.82;;
40355;SDS011;26061;50.044;19.930;2023-04-25T02:34:47;9.13;;;6.03;;
40355;SDS011;26061;50.044;19.930;2023-04-25T02:37:13;9.07;;;5.80;;
40355;SDS011;26061;50.044;19.930;2023-04-25T02:39:38;8.48;;;5.95;;
40355;SDS011;26061;50.044;19.930;2023-04-25T02:42:04;8.70;;;6.47;;
40355;SDS011;26061;50.044;19.930;2023-04-25T02:44:30;7.43;;;5.73;;
40355;SDS011;26061;50.044;19.930;2023-04-25T02:46:55;8.80;;;5.80;;
40355;SDS011;26061;50.044;19.930;2023-04-25T02:49:21;7.28;;;5.45;;
40355;SDS011;26061;50.044;19.930;2023-04-25T02:51:46;8.97;;;6.03;;
40355;SDS011;26061;50.044;19.930;2023-04-25T02:54:12;7.47;;;6.05;;
40355;SDS011;26061;50.044;19.930;2023-04-25T02:56:37;8.13;;;6.30;;
40355;SDS011;26061;50.044;19.930;2023-04-25T02:59:03;7.97;;;5.57;;
40355;SDS011;26061;50.044;19.930;2023-04-25T03:01:28;6.70;;;5.45;;
40355;SDS011;26061;50.044;19.930;2023-04-25T03:03:54;7.25;;;5.47;;
40355;SDS011;26061;50.044;19.930;2023-04-25T03:06:19;9.23;;;5.47;;
40355;SDS011;26061;50.044;19.930;2023-04-25T03:08:45;10.47;;;6.37;;
40355;SDS011;26061;50.044;19.930;2023-04-25T03:11:11;8.32;;;5.72;;
40355;SDS011;26061;50.044;19.930;2023-04-25T03:13:36;7.30;;;6.00;;
40355;SDS011;26061;50.044;19.930;2023-04-25T03:16:02;7.82;;;5.88;;
40355;SDS011;26061;50.044;19.930;2023-04-25T03:18:28;8.70;;;5.43;;
40355;SDS011;26061;50.044;19.930;2023-04-25T03:20:53;8.15;;;5.38;;
40355;SDS011;26061;50.044;19.930;2023-04-25T03:23:19;5.63;;;4.68;;
40355;SDS011;26061;50.044;19.930;2023-04-25T03:25:44;6.43;;;5.07;;
40355;SDS011;26061;50.044;19.930;2023-04-25T03:28:10;4.15;;;3.78;;
40355;SDS011;26061;50.044;19.930;2023-04-25T03:30:35;8.05;;;4.25;;
40355;SDS011;26061;50.044;19.930;2023-04-25T03:33:01;5.30;;;3.70;;
40355;SDS011;26061;50.044;19.930;2023-04-25T03:35:26;4.17;;;3.77;;
40355;SDS011;26061;50.044;19.930;2023-04-25T03:37:52;5.03;;;2.93;;
40355;SDS011;26061;50.044;19.930;2023-04-25T03:40:17;3.28;;;2.75;;
40355;SDS011;26061;50.044;19.930;2023-04-25T03:42:43;3.37;;;2.83;;
40355;SDS011;26061;50.044;19.930;2023-04-25T03:45:09;3.65;;;2.78;;
40355;SDS011;26061;50.044;19.930;2023-04-25T03:47:34;2.97;;;2.67;;
40355;SDS011;26061;50.044;19.930;2023-04-25T03:50:00;3.47;;;2.67;;
40355;SDS011;26061;50.044;19.930;2023-04-25T03:52:27;6.45;;;3.30;;
40355;SDS011;26061;50.044;19.930;2023-04-25T03:54:53;2.87;;;2.47;;
40355;SDS011;26061;50.044;19.930;2023-04-25T03:57:18;3.90;;;2.77;;
40355;SDS011;26061;50.044;19.930;2023-04-25T03:59:44;3.07;;;2.50;;
40355;SDS011;26061;50.044;19.930;2023-04-25T04:02:10;2.80;;;2.50;;
40355;SDS011;26061;50.044;19.930;2023-04-25T04:04:35;4.45;;;2.70;;
40355;SDS011;26061;50.044;19.930;2023-04-25T04:07:01;4.70;;;2.87;;
40355;SDS011;26061;50.044;19.930;2023-04-25T04:09:27;2.70;;;2.43;;
40355;SDS011;26061;50.044;19.930;2023-04-25T04:11:53;5.60;;;2.57;;
40355;SDS011;26061;50.044;19.930;2023-04-25T04:14:18;3.10;;;2.77;;
40355;SDS011;26061;50.044;19.930;2023-04-25T04:16:44;5.60;;;2.60;;
40355;SDS011;26061;50.044;19.930;2023-04-25T04:19:10;2.80;;;2.60;;
40355;SDS011;26061;50.044;19.930;2023-04-25T04:21:35;3.63;;;2.83;;
40355;SDS011;26061;50.044;19.930;2023-04-25T04:24:01;3.47;;;3.03;;
40355;SDS011;26061;50.044;19.930;2023-04-25T04:26:27;2.53;;;2.30;;
40355;SDS011;26061;50.044;19.930;2023-04-25T04:28:52;2.50;;;2.30;;
40355;SDS011;26061;50.044;19.930;2023-04-25T04:31:20;3.73;;;2.23;;
40355;SDS011;26061;50.044;19.930;2023-04-25T04:33:46;2.90;;;2.40;;
40355;SDS011;26061;50.044;19.930;2023-04-25T04:36:15;3.03;;;2.40;;
40355;SDS011;26061;50.044;19.930;2023-04-25T04:38:40;3.58;;;2.33;;
40355;SDS011;26061;50.044;19.930;2023-04-25T04:41:06;2.97;;;2.20;;
40355;SDS011;26061;50.044;19.930;2023-04-25T04:43:32;2.33;;;2.13;;
40355;SDS011;26061;50.044;19.930;2023-04-25T04:46:00;2.80;;;2.43;;
40355;SDS011;26061;50.044;19.930;2023-04-25T04:48:26;3.08;;;2.38;;
40355;SDS011;26061;50.044;19.930;2023-04-25T04:50:52;3.10;;;2.30;;
40355;SDS011;26061;50.044;19.930;2023-04-25T04:53:17;4.40;;;2.30;;
40355;SDS011;26061;50.044;19.930;2023-04-25T04:55:43;4.50;;;2.00;;
40355;SDS011;26061;50.044;19.930;2023-04-25T04:58:08;2.70;;;2.50;;
40355;SDS011;26061;50.044;19.930;2023-04-25T05:00:34;4.17;;;2.50;;
40355;SDS011;26061;50.044;19.930;2023-04-25T05:03:00;2.60;;;2.40;;
40355;SDS011;26061;50.044;19.930;2023-04-25T05:05:26;2.67;;;2.20;;
40355;SDS011;26061;50.044;19.930;2023-04-25T05:07:51;2.83;;;2.10;;
40355;SDS011;26061;50.044;19.930;2023-04-25T05:10:18;5.63;;;2.53;;
40355;SDS011;26061;50.044;19.930;2023-04-25T05:12:43;4.68;;;2.53;;
40355;SDS011;26061;50.044;19.930;2023-04-25T05:15:09;2.87;;;2.50;;
40355;SDS011;26061;50.044;19.930;2023-04-25T05:17:35;3.13;;;2.60;;
40355;SDS011;26061;50.044;19.930;2023-04-25T05:20:00;3.60;;;2.77;;
40355;SDS011;26061;50.044;19.930;2023-04-25T05:22:26;3.70;;;2.67;;
40355;SDS011;26061;50.044;19.930;2023-04-25T05:24:52;3.27;;;2.60;;
40355;SDS011;26061;50.044;19.930;2023-04-25T05:27:18;3.22;;;2.30;;
40355;SDS011;26061;50.044;19.930;2023-04-25T05:29:44;5.73;;;3.77;;
40355;SDS011;26061;50.044;19.930;2023-04-25T05:32:09;3.23;;;2.60;;
40355;SDS011;26061;50.044;19.930;2023-04-25T05:34:35;3.37;;;2.60;;
40355;SDS011;26061;50.044;19.930;2023-04-25T05:37:00;2.73;;;2.33;;
40355;SDS011;26061;50.044;19.930;2023-04-25T05:39:26;5.28;;;3.53;;
40355;SDS011;26061;50.044;19.930;2023-04-25T05:41:52;3.03;;;2.67;;
40355;SDS011;26061;50.044;19.930;2023-04-25T05:44:18;3.10;;;2.80;;
40355;SDS011;26061;50.044;19.930;2023-04-25T05:46:43;4.33;;;3.27;;
40355;SDS011;26061;50.044;19.930;2023-04-25T05:49:09;5.43;;;3.10;;
40355;SDS011;26061;50.044;19.930;2023-04-25T05:51:34;3.38;;;3.08;;
40355;SDS011;26061;50.044;19.930;2023-04-25T05:54:00;3.65;;;2.97;;
40355;SDS011;26061;50.044;19.930;2023-04-25T05:56:25;5.70;;;2.95;;
40355;SDS011;26061;50.044;19.930;2023-04-25T05:58:51;4.60;;;2.75;;
40355;SDS011;26061;50.044;19.930;2023-04-25T06:01:17;4.03;;;3.05;;
40355;SDS011;26061;50.044;19.930;2023-04-25T06:03:42;5.15;;;3.13;;
40355;SDS011;26061;50.044;19.930;2023-04-25T06:06:08;3.72;;;2.72;;
40355;SDS011;26061;50.044;19.930;2023-04-25T06:08:34;3.30;;;2.92;;
40355;SDS011;26061;50.044;19.930;2023-04-25T06:10:59;4.00;;;3.10;;
40355;SDS011;26061;50.044;19.930;2023-04-25T06:13:25;3.53;;;2.75;;
40355;SDS011;26061;50.044;19.930;2023-04-25T06:15:51;3.65;;;2.92;;
40355;SDS011;26061;50.044;19.930;2023-04-25T06:18:16;4.10;;;2.95;;
40355;SDS011;26061;50.044;19.930;2023-04-25T06:20:42;4.23;;;2.97;;
40355;SDS011;26061;50.044;19.930;2023-04-25T06:23:07;3.22;;;2.97;;
40355;SDS011;26061;50.044;19.930;2023-04-25T06:25:33;5.10;;;2.80;;
40355;SDS011;26061;50.044;19.930;2023-04-25T06:27:58;5.45;;;3.83;;
40355;SDS011;26061;50.044;19.930;2023-04-25T06:30:24;2.77;;;2.50;;
40355;SDS011;26061;50.044;19.930;2023-04-25T06:32:51;4.50;;;3.08;;
40355;SDS011;26061;50.044;19.930;2023-04-25T06:35:17;4.78;;;3.15;;
40355;SDS011;26061;50.044;19.930;2023-04-25T06:37:42;3.95;;;3.22;;
40355;SDS011;26061;50.044;19.930;2023-04-25T06:40:08;4.63;;;3.40;;
40355;SDS011;26061;50.044;19.930;2023-04-25T06:42:34;4.75;;;3.33;;
40355;SDS011;26061;50.044;19.930;2023-04-25T06:44:59;4.85;;;3.42;;
40355;SDS011;26061;50.044;19.930;2023-04-25T06:47:25;5.80;;;3.25;;
40355;SDS011;26061;50.044;19.930;2023-04-25T06:49:50;3.78;;;3.30;;
40355;SDS011;26061;50.044;19.930;2023-04-25T06:52:16;8.18;;;3.40;;
40355;SDS011;26061;50.044;19.930;2023-04-25T06:54:43;5.07;;;3.83;;
40355;SDS011;26061;50.044;19.930;2023-04-25T06:57:08;4.85;;;3.13;;
40355;SDS011;26061;50.044;19.930;2023-04-25T06:59:34;4.60;;;3.30;;
40355;SDS011;26061;50.044;19.930;2023-04-25T07:02:00;3.95;;;3.03;;
40355;SDS011;26061;50.044;19.930;2023-04-25T07:04:25;3.65;;;3.30;;
40355;SDS011;26061;50.044;19.930;2023-04-25T07:06:51;4.05;;;3.45;;
40355;SDS011;26061;50.044;19.930;2023-04-25T07:09:16;5.95;;;3.72;;
40355;SDS011;26061;50.044;19.930;2023-04-25T07:11:42;5.72;;;4.07;;
40355;SDS011;26061;50.044;19.930;2023-04-25T07:14:07;6.43;;;3.75;;
40355;SDS011;26061;50.044;19.930;2023-04-25T07:16:33;4.43;;;3.50;;
40355;SDS011;26061;50.044;19.930;2023-04-25T07:18:58;5.75;;;3.70;;
40355;SDS011;26061;50.044;19.930;2023-04-25T07:21:27;6.38;;;3.97;;
40355;SDS011;26061;50.044;19.930;2023-04-25T07:23:53;4.95;;;3.88;;
40355;SDS011;26061;50.044;19.930;2023-04-25T07:26:18;6.28;;;3.97;;
40355;SDS011;26061;50.044;19.930;2023-04-25T07:28:44;5.15;;;3.97;;
40355;SDS011;26061;50.044;19.930;2023-04-25T07:31:10;4.25;;;3.85;;
40355;SDS011;26061;50.044;19.930;2023-04-25T07:33:35;4.70;;;3.97;;
40355;SDS011;26061;50.044;19.930;2023-04-25T07:36:01;4.80;;;4.30;;
40355;SDS011;26061;50.044;19.930;2023-04-25T07:38:26;4.30;;;3.88;;
40355;SDS011;26061;50.044;19.930;2023-04-25T07:40:52;5.72;;;4.15;;
40355;SDS011;26061;50.044;19.930;2023-04-25T07:43:17;9.40;;;6.90;;
40355;SDS011;26061;50.044;19.930;2023-04-25T07:45:43;8.68;;;6.78;;
40355;SDS011;26061;50.044;19.930;2023-04-25T07:48:09;6.60;;;4.88;;
40355;SDS011;26061;50.044;19.930;2023-04-25T07:50:35;4.30;;;3.90;;
40355;SDS011;26061;50.044;19.930;2023-04-25T07:53:01;6.03;;;4.20;;
40355;SDS011;26061;50.044;19.930;2023-04-25T07:55:26;4.65;;;3.47;;
40355;SDS011;26061;50.044;19.930;2023-04-25T07:57:52;3.58;;;3.22;;
40355;SDS011;26061;50.044;19.930;2023-04-25T08:00:18;4.70;;;3.75;;
40355;SDS011;26061;50.044;19.930;2023-04-25T08:02:43;4.13;;;3.30;;
40355;SDS011;26061;50.044;19.930;2023-04-25T08:05:09;4.20;;;3.20;;
40355;SDS011;26061;50.044;19.930;2023-04-25T08:07:37;5.35;;;3.53;;
40355;SDS011;26061;50.044;19.930;2023-04-25T08:10:03;4.20;;;3.00;;
40355;SDS011;26061;50.044;19.930;2023-04-25T08:12:28;3.80;;;2.80;;
40355;SDS011;26061;50.044;19.930;2023-04-25T08:14:54;3.03;;;2.63;;
40355;SDS011;26061;50.044;19.930;2023-04-25T08:17:19;4.07;;;2.67;;
40355;SDS011;26061;50.044;19.930;2023-04-25T08:19:45;3.17;;;2.53;;
40355;SDS011;26061;50.044;19.930;2023-04-25T08:22:11;3.17;;;2.25;;
40355;SDS011;26061;50.044;19.930;2023-04-25T08:24:36;3.13;;;2.58;;
40355;SDS011;26061;50.044;19.930;2023-04-25T08:27:02;3.70;;;3.08;;
40355;SDS011;26061;50.044;19.930;2023-04-25T08:29:27;3.10;;;2.65;;
40355;SDS011;26061;50.044;19.930;2023-04-25T08:31:53;2.72;;;2.30;;
40355;SDS011;26061;50.044;19.930;2023-04-25T08:34:19;2.42;;;2.22;;
40355;SDS011;26061;50.044;19.930;2023-04-25T08:36:45;2.70;;;2.50;;
40355;SDS011;26061;50.044;19.930;2023-04-25T08:39:11;2.65;;;2.45;;
40355;SDS011;26061;50.044;19.930;2023-04-25T08:41:37;2.85;;;2.65;;
40355;SDS011;26061;50.044;19.930;2023-04-25T08:44:03;2.85;;;2.55;;
40355;SDS011;26061;50.044;19.930;2023-04-25T08:46:28;3.08;;;2.78;;
40355;SDS011;26061;50.044;19.930;2023-04-25T08:48:58;3.28;;;2.30;;
40355;SDS011;26061;50.044;19.930;2023-04-25T08:51:25;3.53;;;2.60;;
40355;SDS011;26061;50.044;19.930;2023-04-25T08:53:51;5.70;;;2.70;;
40355;SDS011;26061;50.044;19.930;2023-04-25T08:56:17;3.72;;;2.42;;
40355;SDS011;26061;50.044;19.930;2023-04-25T08:58:43;2.83;;;2.63;;
40355;SDS011;26061;50.044;19.930;2023-04-25T09:01:09;3.83;;;2.75;;
40355;SDS011;26061;50.044;19.930;2023-04-25T09:03:35;3.15;;;2.42;;
40355;SDS011;26061;50.044;19.930;2023-04-25T09:06:01;4.40;;;2.13;;
40355;SDS011;26061;50.044;19.930;2023-04-25T09:08:26;3.83;;;3.08;;
40355;SDS011;26061;50.044;19.930;2023-04-25T09:10:52;3.85;;;2.60;;
40355;SDS011;26061;50.044;19.930;2023-04-25T09:13:24;2.88;;;2.40;;
40355;SDS011;26061;50.044;19.930;2023-04-25T09:15:53;3.25;;;2.35;;
40355;SDS011;26061;50.044;19.930;2023-04-25T09:20:48;4.85;;;2.65;;
40355;SDS011;26061;50.044;19.930;2023-04-25T09:23:14;2.65;;;2.05;;
40355;SDS011;26061;50.044;19.930;2023-04-25T09:25:39;3.88;;;2.17;;
40355;SDS011;26061;50.044;19.930;2023-04-25T09:28:06;1.85;;;1.67;;
40355;SDS011;26061;50.044;19.930;2023-04-25T09:30:32;2.85;;;1.92;;
40355;SDS011;26061;50.044;19.930;2023-04-25T09:33:08;3.05;;;2.45;;
40355;SDS011;26061;50.044;19.930;2023-04-25T09:35:37;3.63;;;2.60;;
40355;SDS011;26061;50.044;19.930;2023-04-25T09:38:07;2.35;;;2.13;;
40355;SDS011;26061;50.044;19.930;2023-04-25T09:40:33;3.72;;;2.58;;
40355;SDS011;26061;50.044;19.930;2023-04-25T09:42:59;4.68;;;2.90;;
40355;SDS011;26061;50.044;19.930;2023-04-25T09:45:24;2.78;;;2.13;;
40355;SDS011;26061;50.044;19.930;2023-04-25T09:47:50;2.55;;;1.90;;
40355;SDS011;26061;50.044;19.930;2023-04-25T09:50:16;3.10;;;2.50;;
40355;SDS011;26061;50.044;19.930;2023-04-25T09:52:42;2.95;;;2.67;;
40355;SDS011;26061;50.044;19.930;2023-04-25T09:55:08;3.72;;;2.50;;
40355;SDS011;26061;50.044;19.930;2023-04-25T09:57:33;2.50;;;2.30;;
40355;SDS011;26061;50.044;19.930;2023-04-25T10:00:00;3.00;;;2.20;;
40355;SDS011;26061;50.044;19.930;2023-04-25T10:02:29;2.55;;;2.08;;
40355;SDS011;26061;50.044;19.930;2023-04-25T10:04:56;2.05;;;1.85;;
40355;SDS011;26061;50.044;19.930;2023-04-25T10:07:26;2.60;;;1.90;;
40355;SDS011;26061;50.044;19.930;2023-04-25T10:10:12;2.75;;;1.48;;
40355;SDS011;26061;50.044;19.930;2023-04-25T10:12:38;2.97;;;2.03;;
40355;SDS011;26061;50.044;19.930;2023-04-25T10:15:05;2.25;;;2.00;;
40355;SDS011;26061;50.044;19.930;2023-04-25T10:17:33;3.28;;;2.45;;
40355;SDS011;26061;50.044;19.930;2023-04-25T10:19:59;2.97;;;2.35;;
40355;SDS011;26061;50.044;19.930;2023-04-25T10:22:31;2.75;;;2.00;;
40355;SDS011;26061;50.044;19.930;2023-04-25T10:24:58;3.10;;;1.90;;
40355;SDS011;26061;50.044;19.930;2023-04-25T10:27:23;2.75;;;2.00;;
40355;SDS011;26061;50.044;19.930;2023-04-25T10:32:32;6.88;;;4.40;;
40355;SDS011;26061;50.044;19.930;2023-04-25T10:35:06;9.25;;;4.35;;
40355;SDS011;26061;50.044;19.930;2023-04-25T10:37:35;3.75;;;2.55;;
40355;SDS011;26061;50.044;19.930;2023-04-25T10:40:07;3.58;;;3.05;;
40355;SDS011;26061;50.044;19.930;2023-04-25T10:42:33;3.53;;;2.90;;
40355;SDS011;26061;50.044;19.930;2023-04-25T10:45:04;4.93;;;3.03;;
40355;SDS011;26061;50.044;19.930;2023-04-25T10:47:34;3.40;;;2.10;;
40355;SDS011;26061;50.044;19.930;2023-04-25T10:50:04;2.10;;;1.90;;
40355;SDS011;26061;50.044;19.930;2023-04-25T10:52:29;2.35;;;2.13;;
40355;SDS011;26061;50.044;19.930;2023-04-25T10:54:57;3.00;;;2.00;;
40355;SDS011;26061;50.044;19.930;2023-04-25T10:57:30;4.07;;;2.05;;
40355;SDS011;26061;50.044;19.930;2023-04-25T11:00:12;2.45;;;1.70;;
40355;SDS011;26061;50.044;19.930;2023-04-25T11:02:42;2.65;;;2.15;;
40355;SDS011;26061;50.044;19.930;2023-04-25T11:05:16;1.85;;;1.63;;
40355;SDS011;26061;50.044;19.930;2023-04-25T11:07:51;2.85;;;1.75;;
40355;SDS011;26061;50.044;19.930;2023-04-25T11:10:17;2.78;;;1.70;;
40355;SDS011;26061;50.044;19.930;2023-04-25T11:12:44;4.88;;;1.58;;
40355;SDS011;26061;50.044;19.930;2023-04-25T11:15:10;1.95;;;1.30;;
40355;SDS011;26061;50.044;19.930;2023-04-25T11:17:35;1.30;;;1.20;;
40355;SDS011;26061;50.044;19.930;2023-04-25T11:20:01;2.35;;;1.38;;
40355;SDS011;26061;50.044;19.930;2023-04-25T11:22:32;2.10;;;1.20;;
40355;SDS011;26061;50.044;19.930;2023-04-25T11:25:00;2.15;;;1.60;;
40355;SDS011;26061;50.044;19.930;2023-04-25T11:27:29;2.25;;;1.48;;
40355;SDS011;26061;50.044;19.930;2023-04-25T11:29:55;3.25;;;1.77;;
40355;SDS011;26061;50.044;19.930;2023-04-25T11:32:20;2.15;;;1.55;;
40355;SDS011;26061;50.044;19.930;2023-04-25T11:34:46;2.30;;;1.75;;
40355;SDS011;26061;50.044;19.930;2023-04-25T11:37:12;3.38;;;1.45;;
40355;SDS011;26061;50.044;19.930;2023-04-25T11:39:42;1.55;;;1.33;;
40355;SDS011;26061;50.044;19.930;2023-04-25T11:42:08;2.88;;;1.50;;
40355;SDS011;26061;50.044;19.930;2023-04-25T11:44:33;3.85;;;1.38;;
40355;SDS011;26061;50.044;19.930;2023-04-25T11:46:59;3.65;;;1.92;;
40355;SDS011;26061;50.044;19.930;2023-04-25T11:49:24;6.18;;;1.50;;
40355;SDS011;26061;50.044;19.930;2023-04-25T11:51:55;1.70;;;1.55;;
40355;SDS011;26061;50.044;19.930;2023-04-25T11:54:20;3.25;;;1.38;;
40355;SDS011;26061;50.044;19.930;2023-04-25T11:56:48;2.55;;;1.38;;
40355;SDS011;26061;50.044;19.930;2023-04-25T11:59:13;2.28;;;1.70;;
40355;SDS011;26061;50.044;19.930;2023-04-25T12:01:41;4.53;;;1.50;;
40355;SDS011;26061;50.044;19.930;2023-04-25T12:04:24;2.90;;;1.60;;
40355;SDS011;26061;50.044;19.930;2023-04-25T12:06:54;4.38;;;1.65;;
40355;SDS011;26061;50.044;19.930;2023-04-25T12:09:20;2.47;;;1.55;;
40355;SDS011;26061;50.044;19.930;2023-04-25T12:11:53;2.15;;;1.70;;
40355;SDS011;26061;50.044;19.930;2023-04-25T12:14:28;3.95;;;1.92;;
40355;SDS011;26061;50.044;19.930;2023-04-25T12:16:55;5.43;;;1.90;;
40355;SDS011;26061;50.044;19.930;2023-04-25T12:19:21;3.85;;;1.88;;
40355;SDS011;26061;50.044;19.930;2023-04-25T12:21:47;1.67;;;1.52;;
40355;SDS011;26061;50.044;19.930;2023-04-25T12:24:14;2.58;;;1.80;;
40355;SDS011;26061;50.044;19.930;2023-04-25T12:26:59;3.50;;;1.80;;
40355;SDS011;26061;50.044;19.930;2023-04-25T12:29:25;1.88;;;1.70;;
40355;SDS011;26061;50.044;19.930;2023-04-25T12:31:51;3.97;;;1.70;;
40355;SDS011;26061;50.044;19.930;2023-04-25T12:34:18;2.85;;;1.70;;
40355;SDS011;26061;50.044;19.930;2023-04-25T12:36:43;2.17;;;1.73;;
40355;SDS011;26061;50.044;19.930;2023-04-25T12:39:13;2.70;;;1.90;;
40355;SDS011;26061;50.044;19.930;2023-04-25T12:41:41;6.10;;;2.10;;
40355;SDS011;26061;50.044;19.930;2023-04-25T12:44:06;2.40;;;1.90;;
40355;SDS011;26061;50.044;19.930;2023-04-25T12:46:32;2.58;;;1.80;;
40355;SDS011;26061;50.044;19.930;2023-04-25T12:48:58;1.92;;;1.70;;
40355;SDS011;26061;50.044;19.930;2023-04-25T12:51:23;4.53;;;2.15;;
40355;SDS011;26061;50.044;19.930;2023-04-25T12:53:50;2.35;;;1.73;;
40355;SDS011;26061;50.044;19.930;2023-04-25T12:56:16;5.32;;;2.15;;
40355;SDS011;26061;50.044;19.930;2023-04-25T12:58:41;2.55;;;2.08;;
40355;SDS011;26061;50.044;19.930;2023-04-25T13:01:09;2.80;;;2.25;;
40355;SDS011;26061;50.044;19.930;2023-04-25T13:03:35;8.32;;;2.40;;
40355;SDS011;26061;50.044;19.930;2023-04-25T13:06:00;5.32;;;2.63;;
40355;SDS011;26061;50.044;19.930;2023-04-25T13:08:26;3.20;;;2.15;;
40355;SDS011;26061;50.044;19.930;2023-04-25T13:10:52;4.65;;;2.67;;
40355;SDS011;26061;50.044;19.930;2023-04-25T13:13:17;3.83;;;2.58;;
40355;SDS011;26061;50.044;19.930;2023-04-25T13:15:43;3.67;;;2.47;;
40355;SDS011;26061;50.044;19.930;2023-04-25T13:18:08;3.90;;;2.53;;
40355;SDS011;26061;50.044;19.930;2023-04-25T13:20:34;3.08;;;1.88;;
40355;SDS011;26061;50.044;19.930;2023-04-25T13:23:02;2.97;;;2.00;;
40355;SDS011;26061;50.044;19.930;2023-04-25T13:25:27;3.03;;;2.20;;
40355;SDS011;26061;50.044;19.930;2023-04-25T13:27:53;3.25;;;2.28;;
40355;SDS011;26061;50.044;19.930;2023-04-25T13:30:18;3.95;;;2.10;;
40355;SDS011;26061;50.044;19.930;2023-04-25T13:32:44;4.05;;;2.15;;
40355;SDS011;26061;50.044;19.930;2023-04-25T13:35:10;3.28;;;2.47;;
40355;SDS011;26061;50.044;19.930;2023-04-25T13:37:36;2.22;;;2.03;;
40355;SDS011;26061;50.044;19.930;2023-04-25T13:40:02;2.47;;;2.28;;
40355;SDS011;26061;50.044;19.930;2023-04-25T13:42:30;2.65;;;1.90;;
40355;SDS011;26061;50.044;19.930;2023-04-25T13:44:56;2.28;;;2.05;;
40355;SDS011;26061;50.044;19.930;2023-04-25T13:47:22;5.80;;;2.50;;
40355;SDS011;26061;50.044;19.930;2023-04-25T13:49:47;3.20;;;2.33;;
40355;SDS011;26061;50.044;19.930;2023-04-25T13:52:13;2.88;;;2.25;;
40355;SDS011;26061;50.044;19.930;2023-04-25T13:54:39;3.60;;;2.53;;
40355;SDS011;26061;50.044;19.930;2023-04-25T13:57:04;4.18;;;2.55;;
40355;SDS011;26061;50.044;19.930;2023-04-25T13:59:31;7.38;;;2.40;;
40355;SDS011;26061;50.044;19.930;2023-04-25T14:01:57;5.25;;;3.15;;
40355;SDS011;26061;50.044;19.930;2023-04-25T14:04:22;2.72;;;2.35;;
40355;SDS011;26061;50.044;19.930;2023-04-25T14:06:48;3.97;;;2.50;;
40355;SDS011;26061;50.044;19.930;2023-04-25T14:09:13;5.38;;;2.40;;
40355;SDS011;26061;50.044;19.930;2023-04-25T14:11:40;3.88;;;3.30;;
40355;SDS011;26061;50.044;19.930;2023-04-25T14:14:06;4.07;;;2.60;;
40355;SDS011;26061;50.044;19.930;2023-04-25T14:16:31;4.90;;;2.75;;
40355;SDS011;26061;50.044;19.930;2023-04-25T14:18:57;4.20;;;2.25;;
40355;SDS011;26061;50.044;19.930;2023-04-25T14:21:23;3.00;;;2.70;;
40355;SDS011;26061;50.044;19.930;2023-04-25T14:23:48;3.65;;;2.88;;
40355;SDS011;26061;50.044;19.930;2023-04-25T14:26:14;3.92;;;3.08;;
40355;SDS011;26061;50.044;19.930;2023-04-25T14:28:40;7.35;;;2.70;;
40355;SDS011;26061;50.044;19.930;2023-04-25T14:31:05;4.80;;;3.20;;
40355;SDS011;26061;50.044;19.930;2023-04-25T14:33:31;3.35;;;2.65;;